Time;durP1;ratioP1;P1;durP2;ratioP2;P2;SDS_P1;SDS_P2;PMS_P1;PMS_P2;Temp;Humidity;BMP_temperature;BMP_pressure;BME280_temperature;BME280_humidity;BME280_pressure;Samples;Min_cycle;Max_cycle;Signal;HPM_P1;HPM_P2
2022/10/19 00:01:20;;;;;;;6.57;4.68;;;29.20;93.30;;;;;;5023693;28;20022;-56
2022/10/19 00:03:51;;;;;;;5.07;3.47;;;29.20;93.30;;;;;;5022530;28;20034;-54
2022/10/19 00:06:31;;;;;;;7.38;3.90;;;29.20;93.30;;;;;;5024156;28;20022;-54
2022/10/19 00:09:11;;;;;;;5.93;4.03;;;29.20;93.30;;;;;;5023765;28;20037;-54
2022/10/19 00:11:41;;;;;;;6.40;3.60;;;29.20;93.30;;;;;;5023793;28;20076;-54
2022/10/19 00:14:12;;;;;;;9.57;3.80;;;29.20;93.30;;;;;;5023559;28;20081;-53
2022/10/19 00:16:40;;;;;;;10.48;3.95;;;29.20;93.30;;;;;;5024142;28;20084;-56
2022/10/19 00:19:10;;;;;;;7.45;3.80;;;29.20;93.30;;;;;;5027063;28;20026;-55
2022/10/19 00:21:39;;;;;;;6.65;3.35;;;29.10;93.20;;;;;;5027266;28;20038;-56
2022/10/19 00:24:07;;;;;;;6.47;3.55;;;29.20;93.20;;;;;;5026775;28;20030;-59
2022/10/19 00:26:34;;;;;;;13.52;4.68;;;29.20;93.20;;;;;;5027322;28;20085;-59
2022/10/19 00:29:04;;;;;;;7.53;3.85;;;29.10;93.20;;;;;;5027167;28;20024;-59
2022/10/19 00:31:31;;;;;;;9.07;3.72;;;29.10;93.20;;;;;;5022986;28;20037;-54
2022/10/19 00:34:00;;;;;;;6.35;3.47;;;29.10;93.30;;;;;;5025126;28;20092;-55
2022/10/19 00:36:35;;;;;;;5.95;2.90;;;29.00;93.30;;;;;;5018978;28;20326;-59
2022/10/19 00:39:03;;;;;;;8.25;2.78;;;29.00;93.40;;;;;;5020624;28;20334;-59
2022/10/19 00:41:32;;;;;;;7.43;3.00;;;28.90;93.40;;;;;;5019050;28;20037;-53
2022/10/19 00:44:04;;;;;;;7.05;2.90;;;28.80;93.50;;;;;;5018126;28;20057;-56
2022/10/19 00:46:34;;;;;;;3.97;2.53;;;28.80;93.50;;;;;;5017105;28;20026;-53
2022/10/19 00:49:22;;;;;;;9.15;2.42;;;28.70;93.50;;;;;;5018512;28;20027;-53
2022/10/19 00:52:03;;;;;;;8.35;2.08;;;28.70;93.50;;;;;;5019231;28;20044;-59
2022/10/19 00:54:32;;;;;;;4.55;2.30;;;28.60;93.50;;;;;;5019736;28;20034;-53
2022/10/19 00:56:59;;;;;;;3.22;2.38;;;28.60;93.40;;;;;;5010466;28;20093;-53
2022/10/19 00:59:30;;;;;;;3.33;2.30;;;28.60;93.40;;;;;;5021384;28;20376;-55
2022/10/19 01:01:57;;;;;;;4.85;2.60;;;28.60;93.40;;;;;;5022201;28;20046;-51
2022/10/19 01:04:26;;;;;;;3.72;2.10;;;28.50;93.30;;;;;;5025206;28;20045;-55
2022/10/19 01:06:53;;;;;;;3.10;2.38;;;28.60;93.40;;;;;;5024881;28;20045;-58
2022/10/19 01:09:20;;;;;;;5.53;3.17;;;28.50;93.30;;;;;;5025412;28;20092;-52
2022/10/19 01:12:05;;;;;;;7.78;4.03;;;28.50;93.20;;;;;;5024899;28;20021;-57
2022/10/19 01:14:57;;;;;;;5.78;4.15;;;28.50;93.20;;;;;;5025696;28;20084;-57
2022/10/19 01:17:42;;;;;;;8.05;4.68;;;28.50;93.20;;;;;;5026381;28;20097;-54
2022/10/19 01:20:43;;;;;;;8.43;4.18;;;28.50;93.20;;;;;;5026004;28;20080;-56
2022/10/19 01:23:32;;;;;;;7.20;4.10;;;28.40;93.10;;;;;;5020162;28;20229;-57
2022/10/19 01:26:04;;;;;;;7.35;4.05;;;28.50;93.10;;;;;;5025828;28;20088;-59
2022/10/19 01:28:50;;;;;;;6.45;3.90;;;28.50;93.10;;;;;;5026220;28;20298;-55
2022/10/19 01:31:47;;;;;;;8.05;4.15;;;28.50;93.00;;;;;;5025510;28;20025;-57
2022/10/19 01:34:37;;;;;;;7.18;4.00;;;28.60;93.00;;;;;;5025317;28;20057;-57
2022/10/19 01:37:06;;;;;;;6.70;3.97;;;28.60;92.90;;;;;;5022712;28;20029;-57
2022/10/19 01:40:01;;;;;;;9.18;4.22;;;28.60;93.00;;;;;;5023990;28;20337;-55
2022/10/19 01:42:50;;;;;;;8.27;3.50;;;28.60;93.00;;;;;;5024383;28;20038;-57
2022/10/19 01:45:26;;;;;;;7.38;3.67;;;28.60;92.90;;;;;;5024073;28;20026;-55
2022/10/19 01:48:04;;;;;;;5.70;3.20;;;28.60;92.90;;;;;;5024232;28;20026;-55
2022/10/19 01:50:38;;;;;;;5.57;2.72;;;28.60;92.90;;;;;;5024506;28;20360;-55
2022/10/19 01:53:07;;;;;;;7.93;3.08;;;28.60;92.90;;;;;;5025932;28;20062;-55
2022/10/19 01:55:41;;;;;;;5.63;2.88;;;28.60;92.90;;;;;;5025176;28;20088;-60
2022/10/19 01:58:14;;;;;;;5.75;2.60;;;28.60;92.90;;;;;;5025726;28;20038;-59
2022/10/19 02:00:44;;;;;;;7.50;3.35;;;28.60;92.80;;;;;;5025284;28;20029;-60
2022/10/19 02:03:12;;;;;;;19.05;4.95;;;28.60;92.80;;;;;;5025619;28;20060;-60
2022/10/19 02:05:39;;;;;;;9.38;4.25;;;28.60;92.80;;;;;;5025173;28;20022;-58
2022/10/19 02:08:13;;;;;;;9.70;4.15;;;28.60;92.80;;;;;;5025541;28;20234;-58
2022/10/19 02:10:43;;;;;;;7.43;3.30;;;28.60;92.90;;;;;;5025003;28;20029;-60
2022/10/19 02:13:13;;;;;;;9.68;2.80;;;28.60;92.80;;;;;;5025567;28;20049;-58
2022/10/19 02:15:43;;;;;;;6.18;2.90;;;28.60;92.80;;;;;;5024763;28;20030;-57
2022/10/19 02:21:34;;;;;;;4.75;2.38;;;28.60;92.60;;;;;;5024920;28;20028;-56
2022/10/19 02:24:03;;;;;;;8.90;2.35;;;28.50;92.50;;;;;;5024672;28;20057;-60
2022/10/19 02:26:30;;;;;;;4.95;2.10;;;28.50;92.60;;;;;;5024620;28;20052;-55
2022/10/19 02:28:58;;;;;;;8.07;2.28;;;28.50;92.60;;;;;;5024744;28;20028;-58
2022/10/19 02:31:25;;;;;;;3.95;1.90;;;28.60;92.60;;;;;;5024740;28;20037;-53
2022/10/19 02:33:53;;;;;;;7.70;2.55;;;28.50;92.60;;;;;;5025131;28;20034;-55
2022/10/19 02:36:22;;;;;;;7.32;2.05;;;28.50;92.70;;;;;;5025107;28;20022;-52
2022/10/19 02:38:49;;;;;;;5.15;2.10;;;28.50;92.70;;;;;;5024460;28;20022;-52
2022/10/19 02:41:23;;;;;;;7.65;2.35;;;28.50;92.70;;;;;;5024194;28;20018;-50
2022/10/19 02:43:57;;;;;;;5.07;3.75;;;28.50;92.60;;;;;;5024489;28;20030;-55
2022/10/19 02:46:47;;;;;;;5.43;3.70;;;28.50;92.60;;;;;;5024585;28;20030;-54
2022/10/19 02:49:14;;;;;;;9.07;3.22;;;28.50;92.60;;;;;;5024104;28;20353;-59
2022/10/19 02:52:04;;;;;;;8.27;2.95;;;28.50;92.70;;;;;;5024532;28;20026;-60
2022/10/19 02:54:31;;;;;;;10.55;2.83;;;28.50;92.80;;;;;;5024363;28;20325;-55
2022/10/19 02:56:58;;;;;;;8.10;2.95;;;28.50;92.70;;;;;;5024809;28;20094;-57
2022/10/19 02:59:25;;;;;;;9.50;2.90;;;28.40;92.70;;;;;;5024790;28;20310;-55
2022/10/19 03:01:52;;;;;;;7.60;2.75;;;28.50;92.70;;;;;;5023077;28;20318;-54
2022/10/19 03:04:20;;;;;;;6.55;2.60;;;28.40;92.60;;;;;;5024207;28;20064;-54
2022/10/19 03:06:46;;;;;;;7.95;2.60;;;28.40;92.70;;;;;;5024240;28;20033;-53
2022/10/19 03:09:13;;;;;;;5.38;2.38;;;28.40;92.70;;;;;;5024096;28;20222;-55
2022/10/19 03:11:41;;;;;;;5.05;2.40;;;28.40;92.70;;;;;;5024240;28;20085;-54
2022/10/19 03:14:07;;;;;;;7.40;2.60;;;28.40;92.70;;;;;;5024282;28;20077;-54
2022/10/19 03:16:34;;;;;;;5.03;3.60;;;28.40;92.70;;;;;;5024022;28;20240;-53
2022/10/19 03:19:00;;;;;;;8.65;3.63;;;28.30;92.70;;;;;;5024335;28;20084;-54
2022/10/19 03:21:27;;;;;;;6.90;3.45;;;28.40;92.70;;;;;;5024218;28;20022;-55
2022/10/19 03:23:53;;;;;;;8.02;3.75;;;28.30;92.70;;;;;;5023993;28;20022;-55
2022/10/19 03:26:20;;;;;;;6.75;3.90;;;28.40;92.70;;;;;;5023896;28;20037;-54
2022/10/19 03:28:47;;;;;;;6.35;3.72;;;28.30;92.60;;;;;;5024085;28;20021;-55
2022/10/19 03:31:13;;;;;;;7.88;3.78;;;28.30;92.60;;;;;;5023987;28;20097;-56
2022/10/19 03:33:40;;;;;;;3.45;2.85;;;28.30;92.60;;;;;;5024437;28;20129;-55
2022/10/19 03:36:18;;;;;;;5.57;2.95;;;28.30;92.50;;;;;;5024332;28;20316;-59
2022/10/19 03:38:45;;;;;;;6.40;2.80;;;28.30;92.40;;;;;;5023819;28;20110;-57
2022/10/19 03:41:12;;;;;;;4.53;2.50;;;28.30;92.50;;;;;;5024177;28;20026;-54
2022/10/19 03:43:40;;;;;;;6.85;2.40;;;28.30;92.50;;;;;;5024282;28;20080;-54
2022/10/19 03:46:07;;;;;;;4.40;2.00;;;28.30;92.40;;;;;;5023740;28;20022;-53
2022/10/19 03:48:34;;;;;;;3.92;2.20;;;28.30;92.40;;;;;;5024337;28;20089;-52
2022/10/19 03:51:06;;;;;;;4.28;2.00;;;28.30;92.30;;;;;;5025014;28;20030;-51
2022/10/19 03:53:33;;;;;;;2.45;1.70;;;28.20;92.30;;;;;;5028076;28;20037;-55
2022/10/19 03:56:05;;;;;;;6.10;1.67;;;28.20;92.20;;;;;;5027630;28;20104;-57
2022/10/19 03:58:34;;;;;;;4.50;1.90;;;28.20;92.10;;;;;;5028119;28;20329;-54
2022/10/19 04:01:01;;;;;;;5.70;1.77;;;28.20;92.00;;;;;;5027655;28;20042;-54
2022/10/19 04:03:27;;;;;;;4.03;1.63;;;28.20;91.90;;;;;;5026529;28;20205;-55
2022/10/19 04:06:02;;;;;;;5.50;1.33;;;28.20;91.80;;;;;;5027556;28;20018;-62
2022/10/19 04:08:29;;;;;;;6.32;1.60;;;28.20;91.80;;;;;;5027168;28;20038;-56
2022/10/19 04:11:02;;;;;;;4.35;1.73;;;28.20;91.90;;;;;;5027361;28;20052;-56
2022/10/19 04:13:29;;;;;;;2.97;1.55;;;28.20;92.00;;;;;;5027561;28;20201;-62
2022/10/19 04:15:56;;;;;;;5.95;1.70;;;28.20;91.90;;;;;;5027597;28;20278;-54
2022/10/19 04:18:23;;;;;;;2.25;1.80;;;28.20;91.90;;;;;;5027640;28;20042;-56
2022/10/19 04:21:03;;;;;;;5.95;1.85;;;28.10;91.70;;;;;;5027041;28;20025;-54
2022/10/19 04:23:35;;;;;;;4.32;1.63;;;28.10;91.50;;;;;;5027458;28;20030;-56
2022/10/19 04:26:06;;;;;;;5.63;1.60;;;28.10;91.60;;;;;;5026801;28;20273;-54
2022/10/19 04:28:33;;;;;;;3.53;1.50;;;28.10;91.60;;;;;;5027437;28;20040;-55
2022/10/19 04:31:05;;;;;;;2.58;1.25;;;28.10;91.60;;;;;;5027041;28;20049;-54
2022/10/19 04:33:32;;;;;;;3.03;1.30;;;28.10;91.40;;;;;;5027291;28;20105;-54
2022/10/19 04:36:00;;;;;;;6.32;1.73;;;28.10;91.40;;;;;;5027152;28;20022;-53
2022/10/19 04:38:30;;;;;;;4.78;2.05;;;28.10;91.40;;;;;;5027242;28;20076;-55
2022/10/19 04:41:02;;;;;;;3.45;1.92;;;28.10;91.50;;;;;;5026699;28;20041;-53
2022/10/19 04:43:28;;;;;;;3.88;1.65;;;28.10;91.70;;;;;;5027072;28;20054;-54
2022/10/19 04:45:55;;;;;;;4.93;1.70;;;28.10;91.60;;;;;;5026587;28;20022;-60
2022/10/19 04:48:21;;;;;;;4.60;1.67;;;28.10;91.60;;;;;;5026948;28;20026;-59
2022/10/19 04:50:48;;;;;;;2.53;1.67;;;28.10;91.60;;;;;;5026709;28;20029;-54
2022/10/19 04:53:15;;;;;;;3.55;1.60;;;28.00;91.50;;;;;;5026546;28;20038;-55
2022/10/19 04:55:42;;;;;;;5.28;1.65;;;28.00;91.50;;;;;;5026389;28;20022;-56
2022/10/19 04:58:08;;;;;;;6.72;1.70;;;28.00;91.60;;;;;;5026853;28;20033;-54
2022/10/19 05:00:38;;;;;;;3.70;1.50;;;28.00;91.50;;;;;;5026332;28;20026;-55
2022/10/19 05:03:05;;;;;;;6.10;1.33;;;28.00;91.60;;;;;;5026195;28;20396;-64
2022/10/19 05:05:33;;;;;;;3.20;1.58;;;28.00;91.50;;;;;;5026407;28;20038;-60
2022/10/19 05:07:59;;;;;;;4.97;1.40;;;28.00;91.60;;;;;;5026888;28;20022;-62
2022/10/19 05:10:26;;;;;;;4.10;1.65;;;28.00;91.50;;;;;;5026066;28;20037;-62
2022/10/19 05:12:53;;;;;;;3.50;1.50;;;28.00;91.50;;;;;;5026462;28;20037;-62
2022/10/19 05:15:20;;;;;;;3.65;1.45;;;28.00;91.50;;;;;;5026146;28;20317;-61
2022/10/19 05:17:46;;;;;;;5.32;1.40;;;28.00;91.40;;;;;;5026239;28;20042;-62
2022/10/19 05:20:13;;;;;;;14.70;1.98;;;28.00;91.40;;;;;;5026043;28;20085;-62
2022/10/19 05:22:40;;;;;;;42.35;3.80;;;28.00;91.40;;;;;;5026279;28;20213;-62
2022/10/19 05:25:07;;;;;;;32.65;3.78;;;27.90;91.30;;;;;;5025486;28;20069;-54
2022/10/19 05:27:34;;;;;;;20.48;2.40;;;27.90;91.40;;;;;;5026159;28;20056;-58
2022/10/19 05:30:00;;;;;;;15.98;2.00;;;27.90;91.40;;;;;;5025788;28;20030;-55
2022/10/19 05:32:27;;;;;;;17.23;2.33;;;27.90;91.50;;;;;;5025909;28;20049;-55
2022/10/19 05:34:54;;;;;;;8.88;1.60;;;27.90;91.60;;;;;;5025918;28;20085;-55
2022/10/19 05:37:20;;;;;;;5.20;1.25;;;27.90;91.60;;;;;;5025951;28;20042;-61
2022/10/19 05:39:47;;;;;;;7.85;1.65;;;27.90;91.70;;;;;;5025645;28;20018;-61
2022/10/19 05:42:13;;;;;;;8.50;1.88;;;27.90;91.80;;;;;;5025879;28;20106;-58
2022/10/19 05:44:40;;;;;;;6.68;1.60;;;27.90;91.90;;;;;;5025583;28;20025;-55
2022/10/19 05:47:07;;;;;;;7.18;1.75;;;27.90;92.00;;;;;;5025468;28;20042;-54
2022/10/19 05:49:33;;;;;;;5.97;1.77;;;27.90;92.10;;;;;;5025574;28;20022;-53
2022/10/19 05:52:00;;;;;;;3.47;1.50;;;27.90;92.20;;;;;;5025646;28;20060;-57
2022/10/19 05:54:27;;;;;;;3.53;1.83;;;27.90;92.20;;;;;;5025266;28;20226;-53
2022/10/19 05:56:53;;;;;;;4.93;1.63;;;27.90;92.20;;;;;;5024826;28;20085;-54
2022/10/19 05:59:21;;;;;;;4.00;1.90;;;27.90;92.30;;;;;;5005806;28;20038;-56
2022/10/19 06:01:48;;;;;;;3.95;1.77;;;27.90;92.30;;;;;;5016231;28;20069;-52
2022/10/19 06:04:14;;;;;;;3.80;1.92;;;27.90;92.40;;;;;;5025454;28;20033;-49
2022/10/19 06:06:42;;;;;;;4.10;1.60;;;27.90;92.40;;;;;;5025189;28;20321;-49
2022/10/19 06:09:09;;;;;;;3.75;1.80;;;27.90;92.40;;;;;;5025082;28;20032;-50
2022/10/19 06:11:38;;;;;;;3.60;1.80;;;27.90;92.50;;;;;;5025037;28;20026;-53
2022/10/19 06:14:12;;;;;;;4.55;1.80;;;27.90;92.50;;;;;;5024325;28;20033;-51
2022/10/19 06:16:38;;;;;;;5.60;1.70;;;27.90;92.60;;;;;;5024726;28;20054;-54
2022/10/19 06:19:05;;;;;;;4.13;1.80;;;27.90;92.60;;;;;;5024969;28;20029;-52
2022/10/19 06:21:32;;;;;;;3.60;1.80;;;27.90;92.60;;;;;;5024993;28;20022;-53
2022/10/19 06:24:03;;;;;;;5.60;1.85;;;27.90;92.60;;;;;;5024757;28;20322;-52
2022/10/19 06:26:31;;;;;;;6.32;1.83;;;27.90;92.70;;;;;;5024732;28;20045;-53
2022/10/19 06:28:59;;;;;;;7.25;1.90;;;27.90;92.70;;;;;;5024886;28;20029;-52
2022/10/19 06:31:34;;;;;;;5.00;1.90;;;27.90;92.70;;;;;;5024836;28;20291;-53
2022/10/19 06:34:01;;;;;;;5.95;1.67;;;27.90;92.60;;;;;;5024993;28;20332;-55
2022/10/19 06:36:29;;;;;;;5.90;1.77;;;27.90;92.50;;;;;;5024093;28;20352;-54
2022/10/19 06:38:58;;;;;;;7.10;1.85;;;27.90;92.40;;;;;;5024703;28;20022;-59
2022/10/19 06:41:24;;;;;;;3.60;1.42;;;27.90;92.30;;;;;;5024477;28;20226;-58
2022/10/19 06:43:55;;;;;;;3.25;1.60;;;27.90;92.20;;;;;;5024427;28;20317;-61
2022/10/19 06:46:24;;;;;;;4.40;1.40;;;27.90;92.20;;;;;;5024649;28;20052;-57
2022/10/19 06:48:55;;;;;;;2.25;1.35;;;27.90;92.10;;;;;;5024597;28;20305;-56
2022/10/19 06:51:24;;;;;;;4.50;1.63;;;27.90;92.10;;;;;;5024283;28;20318;-60
2022/10/19 06:53:51;;;;;;;5.03;1.65;;;27.80;92.10;;;;;;5024367;28;20034;-57
2022/10/19 06:56:17;;;;;;;5.20;1.65;;;27.80;92.20;;;;;;5024525;28;20022;-53
2022/10/19 06:58:44;;;;;;;10.57;1.92;;;27.80;92.30;;;;;;5024153;28;20045;-53
2022/10/19 07:01:12;;;;;;;3.83;1.60;;;27.80;92.40;;;;;;5024498;28;20026;-53
2022/10/19 07:03:40;;;;;;;6.15;1.92;;;27.80;92.50;;;;;;5020241;28;20333;-54
2022/10/19 07:06:11;;;;;;;7.47;1.70;;;27.80;92.50;;;;;;5013277;28;20015;-52
2022/10/19 07:08:39;;;;;;;3.80;1.40;;;27.80;92.50;;;;;;5005220;28;20050;-53
2022/10/19 07:11:14;;;;;;;6.60;1.90;;;27.80;92.50;;;;;;5004724;28;20018;-54
2022/10/19 07:13:41;;;;;;;6.25;1.67;;;27.80;92.50;;;;;;5004990;28;20038;-52
2022/10/19 07:16:12;;;;;;;7.72;1.60;;;27.80;92.50;;;;;;5004517;28;20049;-52
2022/10/19 07:18:40;;;;;;;6.30;1.55;;;27.80;92.70;;;;;;5021399;28;20040;-53
2022/10/19 07:21:10;;;;;;;3.83;1.40;;;27.80;92.70;;;;;;5022463;28;20314;-52
2022/10/19 07:23:39;;;;;;;4.40;1.45;;;27.80;92.80;;;;;;5023988;28;20034;-52
2022/10/19 07:26:29;;;;;;;5.43;1.48;;;27.80;92.80;;;;;;5023422;28;20046;-50
2022/10/19 07:28:56;;;;;;;5.50;1.58;;;27.80;92.70;;;;;;5017631;28;20026;-52
2022/10/19 07:31:24;;;;;;;3.92;1.42;;;27.80;92.50;;;;;;5018056;28;20024;-52
2022/10/19 07:33:58;;;;;;;4.10;1.58;;;27.70;92.50;;;;;;5024115;28;20321;-52
2022/10/19 07:36:25;;;;;;;4.15;1.50;;;27.70;92.40;;;;;;5024278;28;20297;-51
2022/10/19 07:38:52;;;;;;;3.50;1.50;;;27.70;92.30;;;;;;5023911;28;20269;-54
2022/10/19 07:41:21;;;;;;;4.03;1.30;;;27.70;92.30;;;;;;5024082;28;20317;-53
2022/10/19 07:43:49;;;;;;;4.47;1.27;;;27.70;92.20;;;;;;5024019;28;20034;-53
2022/10/19 07:46:21;;;;;;;4.38;1.20;;;27.70;92.30;;;;;;5025013;28;20037;-52
2022/10/19 07:48:48;;;;;;;3.83;1.40;;;27.70;92.20;;;;;;5028698;28;20080;-50
2022/10/19 07:51:16;;;;;;;2.67;1.30;;;27.70;92.20;;;;;;5023768;28;20022;-52
2022/10/19 07:53:43;;;;;;;3.00;1.10;;;27.70;92.20;;;;;;5024323;28;20306;-52
2022/10/19 07:56:12;;;;;;;4.30;1.25;;;27.70;92.20;;;;;;5023740;28;20380;-50
2022/10/19 07:58:39;;;;;;;5.18;1.30;;;27.70;92.20;;;;;;5024128;28;20249;-52
2022/10/19 08:01:14;;;;;;;8.73;1.70;;;27.70;92.20;;;;;;5023730;28;20064;-55
2022/10/19 08:03:42;;;;;;;3.53;1.20;;;27.70;92.20;;;;;;5024078;28;20313;-52
2022/10/19 08:06:12;;;;;;;2.33;1.10;;;27.70;92.20;;;;;;5023530;28;20340;-53
2022/10/19 08:08:39;;;;;;;3.47;1.15;;;27.60;92.10;;;;;;5023596;28;20033;-49
2022/10/19 08:11:17;;;;;;;3.20;1.20;;;27.70;92.20;;;;;;5023652;28;20022;-56
2022/10/19 08:13:44;;;;;;;3.25;0.95;;;27.60;92.10;;;;;;5023576;28;20037;-54
2022/10/19 08:16:32;;;;;;;3.15;1.17;;;27.60;92.10;;;;;;5022637;28;20331;-53
2022/10/19 08:19:08;;;;;;;2.88;1.10;;;27.60;92.00;;;;;;5023464;28;20033;-52
2022/10/19 08:21:36;;;;;;;3.08;1.15;;;27.60;92.10;;;;;;5023564;28;20040;-53
2022/10/19 08:24:02;;;;;;;1.05;0.95;;;27.60;92.10;;;;;;5023316;28;20025;-48
2022/10/19 08:26:31;;;;;;;2.55;0.90;;;27.60;92.10;;;;;;5023310;28;20368;-52
2022/10/19 08:29:09;;;;;;;7.55;1.30;;;27.60;92.00;;;;;;5023410;28;20040;-53
2022/10/19 08:31:36;;;;;;;3.72;1.20;;;27.60;91.90;;;;;;5025466;28;20326;-51
2022/10/19 08:34:03;;;;;;;4.95;1.23;;;27.60;91.90;;;;;;5034428;28;20036;-53
2022/10/19 08:36:31;;;;;;;5.32;1.10;;;27.60;91.90;;;;;;5042955;28;20013;-51
2022/10/19 08:38:58;;;;;;;2.35;1.08;;;27.60;91.90;;;;;;5045596;28;20067;-54
2022/10/19 08:41:31;;;;;;;3.72;0.90;;;27.50;91.80;;;;;;5046664;28;20052;-50
2022/10/19 08:44:03;;;;;;;3.13;1.08;;;27.50;91.90;;;;;;5046388;28;20132;-51
2022/10/19 08:46:48;;;;;;;3.55;1.10;;;27.50;91.90;;;;;;5046698;28;20028;-53
2022/10/19 08:49:19;;;;;;;3.58;1.40;;;27.50;91.90;;;;;;5046508;28;20041;-54
2022/10/19 08:51:50;;;;;;;4.15;1.40;;;27.50;91.90;;;;;;5046570;28;20030;-51
2022/10/19 08:54:17;;;;;;;1.67;1.00;;;27.50;91.90;;;;;;5045334;28;20040;-52
2022/10/19 08:57:20;;;;;;;7.93;1.70;;;27.50;91.90;;;;;;5046502;28;20034;-53
2022/10/19 09:00:31;;;;;;;2.67;1.30;;;27.50;91.90;;;;;;5046300;28;20052;-52
2022/10/19 09:03:16;;;;;;;3.45;1.20;;;27.50;91.90;;;;;;5046420;28;20040;-52
2022/10/19 09:06:05;;;;;;;2.80;1.00;;;27.50;91.90;;;;;;5045039;28;20060;-51
2022/10/19 09:08:33;;;;;;;3.80;1.23;;;27.50;91.90;;;;;;5046596;28;20033;-54
2022/10/19 09:11:00;;;;;;;2.83;1.33;;;27.50;91.90;;;;;;5046211;28;20037;-49
2022/10/19 09:13:36;;;;;;;2.65;1.30;;;27.40;91.80;;;;;;5046373;28;20029;-54
2022/10/19 09:16:03;;;;;;;3.20;1.25;;;27.40;91.70;;;;;;5031810;28;20102;-54
2022/10/19 09:18:32;;;;;;;3.63;1.05;;;27.50;91.70;;;;;;5026652;28;20030;-52
2022/10/19 09:21:18;;;;;;;3.63;1.20;;;27.40;91.70;;;;;;5026204;28;20052;-53
2022/10/19 09:24:14;;;;;;;2.28;1.25;;;27.50;91.60;;;;;;5026221;28;20107;-50
2022/10/19 09:27:14;;;;;;;2.45;1.15;;;27.40;91.50;;;;;;5025934;28;20211;-54
2022/10/19 09:29:43;;;;;;;2.42;1.10;;;27.40;91.40;;;;;;5025874;28;20036;-52
2022/10/19 09:32:14;;;;;;;2.55;1.10;;;27.40;91.40;;;;;;5026194;28;20022;-55
2022/10/19 09:34:49;;;;;;;1.80;1.20;;;27.40;91.30;;;;;;5026162;28;20235;-53
2022/10/19 09:37:18;;;;;;;3.90;0.90;;;27.40;91.30;;;;;;5026002;28;20302;-56
2022/10/19 09:39:45;;;;;;;2.20;1.00;;;27.40;91.20;;;;;;5025593;28;20029;-54
2022/10/19 09:42:22;;;;;;;1.10;1.00;;;27.40;91.20;;;;;;5025868;28;20030;-48
2022/10/19 09:44:53;;;;;;;1.83;0.90;;;27.40;91.20;;;;;;5025601;28;20377;-50
2022/10/19 09:47:28;;;;;;;1.55;0.90;;;27.40;91.20;;;;;;5025841;28;20332;-57
2022/10/19 09:50:14;;;;;;;3.92;1.13;;;27.40;91.20;;;;;;5025513;28;20030;-50
2022/10/19 09:52:43;;;;;;;1.95;0.90;;;27.40;91.10;;;;;;5025481;28;20040;-53
2022/10/19 09:55:13;;;;;;;2.22;1.10;;;27.40;91.20;;;;;;5025442;28;20053;-53
2022/10/19 09:57:57;;;;;;;2.03;0.90;;;27.40;91.20;;;;;;5025496;28;20256;-54
2022/10/19 10:00:31;;;;;;;3.63;1.20;;;27.40;91.20;;;;;;5025390;28;20037;-53
2022/10/19 10:02:57;;;;;;;2.65;1.10;;;27.40;91.10;;;;;;5025042;28;20274;-50
2022/10/19 10:05:38;;;;;;;2.78;1.25;;;27.40;91.20;;;;;;5025217;28;20064;-52
2022/10/19 10:08:24;;;;;;;4.25;1.23;;;27.40;91.20;;;;;;5025466;28;20088;-53
2022/10/19 10:11:14;;;;;;;4.30;1.20;;;27.30;91.20;;;;;;5025119;28;20222;-52
2022/10/19 10:13:48;;;;;;;4.03;1.67;;;27.40;91.30;;;;;;5025715;28;20137;-51
2022/10/19 10:16:16;;;;;;;4.90;2.30;;;27.30;91.40;;;;;;5025050;28;20025;-53
2022/10/19 10:18:54;;;;;;;6.75;2.50;;;27.30;91.50;;;;;;5025366;28;20033;-54
2022/10/19 10:21:30;;;;;;;5.85;2.92;;;27.30;91.60;;;;;;5024795;28;20022;-53
2022/10/19 10:24:09;;;;;;;5.47;3.08;;;27.30;91.60;;;;;;5023582;28;20038;-53
2022/10/19 10:26:45;;;;;;;6.20;3.08;;;27.30;91.70;;;;;;5023749;28;20065;-52
2022/10/19 10:29:28;;;;;;;3.97;2.65;;;27.30;91.70;;;;;;5025055;28;20045;-52
2022/10/19 10:32:18;;;;;;;8.75;2.95;;;27.30;91.70;;;;;;5024852;28;20038;-53
2022/10/19 10:34:46;;;;;;;6.55;4.07;;;27.30;91.70;;;;;;5023297;28;20225;-54
2022/10/19 10:37:20;;;;;;;8.05;3.45;;;27.30;91.70;;;;;;5024566;28;20034;-52
2022/10/19 10:39:52;;;;;;;8.38;3.17;;;27.30;91.60;;;;;;5024514;28;20037;-50
2022/10/19 10:42:33;;;;;;;6.07;2.88;;;27.30;91.50;;;;;;5023608;28;20360;-49
2022/10/19 10:45:00;;;;;;;3.97;2.60;;;27.30;91.50;;;;;;5004839;28;20026;-49
2022/10/19 10:47:28;;;;;;;6.18;2.60;;;27.30;91.50;;;;;;5007571;28;20042;-54
2022/10/19 10:50:02;;;;;;;6.65;2.50;;;27.30;91.50;;;;;;5024651;28;20089;-50
2022/10/19 10:52:30;;;;;;;4.93;2.05;;;27.30;91.30;;;;;;5024518;28;20069;-53
2022/10/19 10:55:17;;;;;;;5.30;2.33;;;27.30;91.20;;;;;;5024432;28;20040;-53
2022/10/19 10:57:48;;;;;;;5.13;2.50;;;27.30;91.20;;;;;;5024542;28;20104;-52
2022/10/19 11:00:23;;;;;;;7.32;2.55;;;27.30;91.30;;;;;;5024062;28;20134;-52
2022/10/19 11:03:24;;;;;;;6.13;2.70;;;27.30;91.40;;;;;;5024556;28;20038;-53
2022/10/19 11:06:03;;;;;;;6.07;2.30;;;27.30;91.40;;;;;;5024184;28;20336;-52
2022/10/19 11:08:39;;;;;;;5.75;2.40;;;27.30;91.50;;;;;;5024788;28;20037;-55
2022/10/19 11:11:27;;;;;;;6.18;2.10;;;27.30;91.60;;;;;;5024067;28;20014;-54
2022/10/19 11:14:16;;;;;;;7.13;2.20;;;27.30;91.70;;;;;;5021192;28;20448;-54
2022/10/19 11:16:46;;;;;;;6.63;2.42;;;27.30;91.80;;;;;;5022022;28;20038;-53
2022/10/19 11:19:26;;;;;;;5.40;3.17;;;27.20;91.90;;;;;;5024257;28;20042;-53
2022/10/19 11:22:14;;;;;;;5.68;3.60;;;27.30;92.20;;;;;;5024130;28;20080;-50
2022/10/19 11:25:12;;;;;;;12.00;5.25;;;27.30;92.20;;;;;;5023959;28;20030;-51
2022/10/19 11:27:58;;;;;;;14.82;6.32;;;27.20;92.40;;;;;;5024602;28;20033;-50
2022/10/19 11:30:26;;;;;;;20.60;8.13;;;27.20;92.50;;;;;;5024177;28;20085;-48
2022/10/19 11:32:55;;;;;;;23.65;7.85;;;27.20;92.50;;;;;;5024406;28;20030;-48
2022/10/19 11:36:03;;;;;;;19.15;6.25;;;27.20;92.60;;;;;;5023453;28;20052;-52
2022/10/19 11:38:57;;;;;;;10.50;4.43;;;27.20;92.70;;;;;;5004864;28;20057;-55
2022/10/19 11:41:32;;;;;;;8.90;3.97;;;27.20;92.80;;;;;;5004287;28;20271;-55
2022/10/19 11:44:17;;;;;;;8.80;3.40;;;27.20;92.80;;;;;;5003684;28;20322;-56
2022/10/19 11:46:59;;;;;;;14.25;3.88;;;27.20;92.70;;;;;;5003904;28;20034;-54
2022/10/19 11:49:50;;;;;;;12.75;4.13;;;27.20;92.70;;;;;;5003128;28;20030;-53
2022/10/19 11:52:40;;;;;;;9.48;3.80;;;27.30;92.80;;;;;;5002517;28;20034;-54
2022/10/19 11:55:27;;;;;;;10.75;3.42;;;27.30;92.80;;;;;;5002223;28;20073;-56
2022/10/19 11:58:15;;;;;;;9.98;3.55;;;27.30;92.80;;;;;;5001667;28;20042;-60
2022/10/19 12:01:18;;;;;;;19.17;3.60;;;27.30;92.80;;;;;;5000897;28;20084;-62
2022/10/19 12:03:48;;;;;;;19.33;3.83;;;27.30;92.70;;;;;;5001423;28;20034;-53
2022/10/19 12:06:20;;;;;;;10.68;3.60;;;27.30;92.70;;;;;;5003193;28;20030;-60
2022/10/19 12:09:05;;;;;;;13.82;3.70;;;27.30;92.70;;;;;;5004161;28;20085;-61
2022/10/19 12:11:51;;;;;;;13.00;3.70;;;27.30;92.70;;;;;;5004054;28;20042;-60
2022/10/19 12:14:24;;;;;;;15.23;3.50;;;27.40;92.70;;;;;;5006923;28;20326;-62
2022/10/19 12:16:57;;;;;;;6.88;2.85;;;27.40;92.60;;;;;;5007087;28;20102;-54
2022/10/19 12:19:31;;;;;;;8.13;3.08;;;27.50;92.60;;;;;;5007709;28;20041;-57
2022/10/19 12:22:01;;;;;;;6.15;3.25;;;27.50;92.50;;;;;;5007391;28;20105;-53
2022/10/19 12:24:31;;;;;;;9.73;3.20;;;27.50;92.50;;;;;;5007430;28;20038;-56
2022/10/19 12:26:58;;;;;;;10.60;3.22;;;27.60;92.50;;;;;;5007285;28;20385;-60
2022/10/19 12:29:48;;;;;;;5.68;3.05;;;27.60;92.50;;;;;;5007487;28;20344;-55
2022/10/19 12:32:18;;;;;;;9.05;2.35;;;27.70;92.50;;;;;;5002275;28;20034;-61
2022/10/19 12:35:02;;;;;;;10.23;3.03;;;27.70;92.50;;;;;;5007346;28;20034;-60
2022/10/19 12:37:33;;;;;;;9.63;2.58;;;27.70;92.40;;;;;;5007642;28;20034;-61
2022/10/19 12:40:27;;;;;;;5.67;2.50;;;27.70;92.40;;;;;;5007404;28;20038;-55
2022/10/19 12:43:12;;;;;;;7.32;2.25;;;27.80;92.50;;;;;;5007626;28;20573;-58
2022/10/19 12:46:14;;;;;;;4.65;2.20;;;27.80;92.40;;;;;;5007035;28;20040;-55
2022/10/19 12:48:40;;;;;;;6.47;1.90;;;27.80;92.30;;;;;;4966633;29;20071;-55
2022/10/19 12:51:10;;;;;;;6.13;2.10;;;27.80;92.20;;;;;;4998985;28;20043;-57
2022/10/19 12:53:43;;;;;;;6.05;1.50;;;27.80;92.20;;;;;;5007736;28;20041;-53
2022/10/19 12:56:19;;;;;;;7.63;1.90;;;27.80;92.10;;;;;;5006936;28;20037;-53
2022/10/19 12:58:53;;;;;;;5.47;1.65;;;27.90;92.10;;;;;;5006943;28;20034;-55
2022/10/19 13:01:22;;;;;;;4.93;1.90;;;27.90;92.00;;;;;;5006841;28;20056;-52
2022/10/19 13:03:53;;;;;;;2.67;1.60;;;27.90;92.00;;;;;;5005524;28;20054;-55
2022/10/19 13:06:22;;;;;;;11.17;2.00;;;27.90;92.00;;;;;;5006856;28;20030;-54
2022/10/19 13:08:59;;;;;;;18.60;2.72;;;28.00;92.00;;;;;;5007054;28;20310;-55
2022/10/19 13:11:25;;;;;;;32.67;4.40;;;27.90;91.90;;;;;;5006483;28;20089;-57
2022/10/19 13:14:06;;;;;;;39.75;4.63;;;28.00;91.90;;;;;;5006669;28;20022;-55
2022/10/19 13:16:40;;;;;;;19.27;3.22;;;28.00;91.80;;;;;;5006390;28;20034;-57
2022/10/19 13:19:13;;;;;;;20.90;3.17;;;28.10;91.90;;;;;;5006649;28;20076;-54